This is the latest recevied weather packets stored in our database for station/object VK2CPR-5. If no packets are shown the sender has not sent any weather packets the latest 10 day(s).
| Time | Temp. | Humidity | Pressure | Rain* | Wind** | Luminosity | Snow |
|---|---|---|---|---|---|---|---|
| 1788155040 | 72° F | 63% | 773.6 mmHg | - | - | - | - |
| 1788153834 | 73° F | 62% | 773.8 mmHg | - | - | - | - |
| 1788152626 | 73° F | 60% | 773.8 mmHg | - | - | - | - |
| 1788151450 | 73° F | 59% | 774 mmHg | - | - | - | - |
| 1788150244 | 73° F | 58% | 774.1 mmHg | - | - | - | - |
| 1788149037 | 73° F | 57% | 774.1 mmHg | - | - | - | - |
| 1788147831 | 74° F | 55% | 774.4 mmHg | - | - | - | - |
| 1788146624 | 72° F | 57% | 774.6 mmHg | - | - | - | - |
| 1788145417 | 72° F | 56% | 774.7 mmHg | - | - | - | - |
| 1788144253 | 74° F | 54% | 774.9 mmHg | - | - | - | - |
| 1788143046 | 72° F | 56% | 775.1 mmHg | - | - | - | - |
| 1788141839 | 72° F | 55% | 775.3 mmHg | - | - | - | - |
| 1788140633 | 69° F | 58% | 775.6 mmHg | - | - | - | - |
| 1788139426 | 67° F | 60% | 775.7 mmHg | - | - | - | - |
| 1788138219 | 65° F | 64% | 775.9 mmHg | - | - | - | - |
| 1788137051 | 65° F | 62% | 776 mmHg | - | - | - | - |
| 1788135843 | 63° F | 66% | 776.2 mmHg | - | - | - | - |
| 1788134637 | 61° F | 69% | 776.2 mmHg | - | - | - | - |
| 1788133430 | 61° F | 70% | 776.4 mmHg | - | - | - | - |
| 1788132223 | 57° F | 76% | 776.4 mmHg | - | - | - | - |
| 1788131016 | 56° F | 81% | 776.5 mmHg | - | - | - | - |
| 1788129850 | 53° F | 84% | 776.4 mmHg | - | - | - | - |
| 1788128644 | 52° F | 86% | 776.5 mmHg | - | - | - | - |
| 1788127437 | 50° F | 90% | 776.4 mmHg | - | - | - | - |
| 1788126231 | 48° F | 91% | 776.3 mmHg | - | - | - | - |
* Rain since midnight (hover to see other rain measurements)
** Current wind speed in m/s (hover to see current wind gust speed)